Time;durP1;ratioP1;P1;durP2;ratioP2;P2;SDS_P1;SDS_P2;PMS_P1;PMS_P2;Temp;Humidity;BMP_temperature;BMP_pressure;BME280_temperature;BME280_humidity;BME280_pressure;Samples;Min_cycle;Max_cycle;Signal;HPM_P1;HPM_P2
2023/06/06 00:00:17;;;;;;;19.40;16.30;;;;;;;;;;5092506;28;20524;-72
2023/06/06 00:02:45;;;;;;;20.90;17.73;;;;;;;;;;5092969;28;20442;-73
2023/06/06 00:05:13;;;;;;;23.47;17.77;;;;;;;;;;5092836;28;20458;-72
2023/06/06 00:07:40;;;;;;;27.83;17.00;;;;;;;;;;5092945;28;20450;-72
2023/06/06 00:10:11;;;;;;;24.97;17.17;;;;;;;;;;5092565;28;20930;-72
2023/06/06 00:12:38;;;;;;;27.07;19.40;;;;;;;;;;5092908;28;20478;-72
2023/06/06 00:15:06;;;;;;;21.83;17.73;;;;;;;;;;5092718;28;20451;-72
2023/06/06 00:17:33;;;;;;;24.33;17.63;;;;;;;;;;5092944;28;20925;-72
2023/06/06 00:20:01;;;;;;;24.70;18.23;;;;;;;;;;5092478;28;20474;-73
2023/06/06 00:22:28;;;;;;;20.90;17.00;;;;;;;;;;5092812;28;20453;-73
2023/06/06 00:24:56;;;;;;;22.73;18.17;;;;;;;;;;5092828;28;20450;-72
2023/06/06 00:27:24;;;;;;;21.00;17.00;;;;;;;;;;5092556;28;20450;-72
2023/06/06 00:29:51;;;;;;;26.93;19.67;;;;;;;;;;5092465;28;20459;-73
2023/06/06 00:32:18;;;;;;;24.93;19.27;;;;;;;;;;5092552;28;21002;-73
2023/06/06 00:34:45;;;;;;;21.93;17.50;;;;;;;;;;5092750;28;20447;-72
2023/06/06 00:37:12;;;;;;;26.73;19.10;;;;;;;;;;5092672;28;20458;-72
2023/06/06 00:39:39;;;;;;;23.63;18.40;;;;;;;;;;5092386;28;21002;-73
2023/06/06 00:42:07;;;;;;;28.90;18.23;;;;;;;;;;5093687;28;20814;-73
2023/06/06 00:44:35;;;;;;;22.23;18.10;;;;;;;;;;5096450;28;20865;-72
2023/06/06 00:47:03;;;;;;;28.07;19.07;;;;;;;;;;5096135;28;20446;-72
2023/06/06 00:49:30;;;;;;;24.43;18.30;;;;;;;;;;5095949;28;20474;-73
2023/06/06 00:51:58;;;;;;;20.90;16.17;;;;;;;;;;5096203;28;20493;-72
2023/06/06 00:54:25;;;;;;;22.47;17.47;;;;;;;;;;5096153;28;20453;-72
2023/06/06 00:56:52;;;;;;;21.33;16.27;;;;;;;;;;5096019;28;20472;-72
2023/06/06 00:59:20;;;;;;;20.07;15.23;;;;;;;;;;5095954;28;20475;-73
2023/06/06 01:01:48;;;;;;;20.50;13.60;;;;;;;;;;5095987;28;20450;-73
2023/06/06 01:04:17;;;;;;;17.30;14.63;;;;;;;;;;5095943;28;20546;-73
2023/06/06 01:06:45;;;;;;;21.30;15.70;;;;;;;;;;5096034;28;20486;-73
2023/06/06 01:09:13;;;;;;;18.83;14.57;;;;;;;;;;5095576;28;20520;-73
2023/06/06 01:11:46;;;;;;;23.27;16.80;;;;;;;;;;5095949;28;20490;-73
2023/06/06 01:14:18;;;;;;;24.13;18.00;;;;;;;;;;5095823;28;20439;-73
2023/06/06 01:16:49;;;;;;;26.53;18.30;;;;;;;;;;5095789;28;20466;-72
2023/06/06 01:19:21;;;;;;;25.10;18.77;;;;;;;;;;5095517;28;20893;-73
2023/06/06 01:21:51;;;;;;;21.97;18.50;;;;;;;;;;5095579;28;20446;-72
2023/06/06 01:24:20;;;;;;;21.47;17.30;;;;;;;;;;5095780;28;20627;-72
2023/06/06 01:26:47;;;;;;;24.70;17.83;;;;;;;;;;5095666;28;20501;-72
2023/06/06 01:29:14;;;;;;;29.50;20.07;;;;;;;;;;5095130;28;20498;-73
2023/06/06 01:31:43;;;;;;;25.17;19.17;;;;;;;;;;5095440;28;20489;-73
2023/06/06 01:34:12;;;;;;;27.80;19.47;;;;;;;;;;5095325;28;20527;-72
2023/06/06 01:36:43;;;;;;;28.77;19.80;;;;;;;;;;5095384;28;20446;-73
2023/06/06 01:39:15;;;;;;;25.87;17.77;;;;;;;;;;5095157;28;20470;-73
2023/06/06 01:41:42;;;;;;;24.40;18.27;;;;;;;;;;5095349;28;20451;-73
2023/06/06 01:44:11;;;;;;;22.20;17.50;;;;;;;;;;5095193;28;20968;-73
2023/06/06 01:46:39;;;;;;;22.30;18.53;;;;;;;;;;5095118;28;20984;-73
2023/06/06 01:49:06;;;;;;;23.93;17.50;;;;;;;;;;5094197;28;20833;-73
2023/06/06 01:51:33;;;;;;;21.67;17.70;;;;;;;;;;5095089;28;20482;-73
2023/06/06 01:54:00;;;;;;;20.80;17.47;;;;;;;;;;5094048;28;20449;-73
2023/06/06 01:56:33;;;;;;;25.37;19.57;;;;;;;;;;5094755;28;20970;-73
2023/06/06 01:59:00;;;;;;;25.20;20.43;;;;;;;;;;5094719;28;20475;-73
2023/06/06 02:01:28;;;;;;;27.73;19.70;;;;;;;;;;5094860;28;20450;-73
2023/06/06 02:03:55;;;;;;;24.20;18.20;;;;;;;;;;5094302;28;20455;-72
2023/06/06 02:06:23;;;;;;;31.10;23.67;;;;;;;;;;5094634;28;20451;-73
2023/06/06 02:08:50;;;;;;;24.40;19.40;;;;;;;;;;5094502;28;20958;-73
2023/06/06 02:11:17;;;;;;;22.80;17.70;;;;;;;;;;5094705;28;20450;-73
2023/06/06 02:13:47;;;;;;;23.57;18.60;;;;;;;;;;5094574;28;20462;-73
2023/06/06 02:16:16;;;;;;;25.67;19.00;;;;;;;;;;5094551;28;20475;-73
2023/06/06 02:18:44;;;;;;;24.50;19.13;;;;;;;;;;5094413;28;20477;-73
2023/06/06 02:21:12;;;;;;;26.87;20.30;;;;;;;;;;5094465;28;20837;-73
2023/06/06 02:23:39;;;;;;;26.37;19.50;;;;;;;;;;5094492;28;20959;-73
2023/06/06 02:26:06;;;;;;;24.87;19.03;;;;;;;;;;5094542;28;20446;-73
2023/06/06 02:28:33;;;;;;;22.77;17.93;;;;;;;;;;5094344;28;20477;-73
2023/06/06 02:31:02;;;;;;;24.40;19.53;;;;;;;;;;5094411;28;20450;-73
2023/06/06 02:33:29;;;;;;;39.33;20.80;;;;;;;;;;5093859;28;20890;-73
2023/06/06 02:35:56;;;;;;;27.90;20.33;;;;;;;;;;5094332;28;20936;-73
2023/06/06 02:38:24;;;;;;;27.13;21.20;;;;;;;;;;5093743;28;20451;-73
2023/06/06 02:40:51;;;;;;;29.03;20.63;;;;;;;;;;5094133;28;20475;-73
2023/06/06 02:43:18;;;;;;;25.90;20.70;;;;;;;;;;5094033;28;20454;-73
2023/06/06 02:45:46;;;;;;;27.43;19.87;;;;;;;;;;5093974;28;20461;-73
2023/06/06 02:48:15;;;;;;;25.33;19.87;;;;;;;;;;5093554;28;20494;-73
2023/06/06 02:50:42;;;;;;;24.50;19.23;;;;;;;;;;5093970;28;20483;-73
2023/06/06 02:53:11;;;;;;;29.97;23.10;;;;;;;;;;5093712;28;20490;-73
2023/06/06 02:55:38;;;;;;;30.50;21.47;;;;;;;;;;5093839;28;20462;-73
2023/06/06 02:58:05;;;;;;;29.70;19.70;;;;;;;;;;5093793;28;20458;-73
2023/06/06 03:00:33;;;;;;;26.40;18.40;;;;;;;;;;5093559;28;20942;-73
2023/06/06 03:03:00;;;;;;;21.40;16.90;;;;;;;;;;5093922;28;20443;-73
2023/06/06 03:05:31;;;;;;;23.83;17.70;;;;;;;;;;5093455;28;20462;-73
2023/06/06 03:07:58;;;;;;;21.10;16.67;;;;;;;;;;5093733;28;20451;-73
2023/06/06 03:10:26;;;;;;;27.07;18.37;;;;;;;;;;5092728;28;20474;-73
2023/06/06 03:12:53;;;;;;;21.07;16.30;;;;;;;;;;5093538;28;20482;-73
2023/06/06 03:15:20;;;;;;;19.00;16.40;;;;;;;;;;5093505;28;20455;-73
2023/06/06 03:17:48;;;;;;;23.20;18.60;;;;;;;;;;5093605;28;20990;-73
2023/06/06 03:20:15;;;;;;;23.17;19.67;;;;;;;;;;5092734;28;20470;-73
2023/06/06 03:22:44;;;;;;;20.30;17.80;;;;;;;;;;5093563;28;20482;-73
2023/06/06 03:25:13;;;;;;;21.80;17.50;;;;;;;;;;5093266;28;20450;-73
2023/06/06 03:27:42;;;;;;;21.17;17.57;;;;;;;;;;5092455;28;20457;-73
2023/06/06 03:30:10;;;;;;;19.30;15.67;;;;;;;;;;5092649;28;20459;-73
2023/06/06 03:32:37;;;;;;;19.00;15.97;;;;;;;;;;5092519;28;20518;-72
2023/06/06 03:35:04;;;;;;;24.40;15.10;;;;;;;;;;5092662;28;20789;-73
2023/06/06 03:37:32;;;;;;;19.40;15.80;;;;;;;;;;5092680;28;20462;-73
2023/06/06 03:40:00;;;;;;;20.90;15.60;;;;;;;;;;5092891;28;20493;-72
2023/06/06 03:42:27;;;;;;;22.70;17.87;;;;;;;;;;5093006;28;20442;-72
2023/06/06 03:44:55;;;;;;;20.53;14.27;;;;;;;;;;5092838;28;20962;-72
2023/06/06 03:47:22;;;;;;;22.87;16.53;;;;;;;;;;5092836;28;20946;-72
2023/06/06 03:49:49;;;;;;;21.30;16.63;;;;;;;;;;5092802;28;20466;-72
2023/06/06 03:52:16;;;;;;;21.43;16.90;;;;;;;;;;5093005;28;20551;-72
2023/06/06 03:54:43;;;;;;;22.20;16.30;;;;;;;;;;5092787;28;20455;-72
2023/06/06 03:57:12;;;;;;;19.63;14.83;;;;;;;;;;5092620;28;20468;-72
2023/06/06 03:59:40;;;;;;;20.03;16.20;;;;;;;;;;5092346;28;20474;-72
2023/06/06 04:02:07;;;;;;;20.03;15.33;;;;;;;;;;5092646;28;20478;-72
2023/06/06 04:04:36;;;;;;;21.20;16.67;;;;;;;;;;5092320;28;20458;-72
2023/06/06 04:07:04;;;;;;;19.23;16.80;;;;;;;;;;5092656;28;20455;-72
2023/06/06 04:09:31;;;;;;;21.00;16.53;;;;;;;;;;5092745;28;20520;-72
2023/06/06 04:11:58;;;;;;;19.40;15.07;;;;;;;;;;5092183;28;20646;-72
2023/06/06 04:14:27;;;;;;;26.00;20.37;;;;;;;;;;5092699;28;20934;-72
2023/06/06 04:16:54;;;;;;;23.53;16.90;;;;;;;;;;5093257;28;20459;-72
2023/06/06 04:19:21;;;;;;;24.00;18.93;;;;;;;;;;5096503;28;20596;-72
2023/06/06 04:21:48;;;;;;;23.30;17.47;;;;;;;;;;5096524;28;20453;-72
2023/06/06 04:24:16;;;;;;;23.37;17.20;;;;;;;;;;5096538;28;20450;-72
2023/06/06 04:26:44;;;;;;;24.00;18.27;;;;;;;;;;5096442;28;20546;-72
2023/06/06 04:29:13;;;;;;;23.40;16.90;;;;;;;;;;5096332;28;20475;-72
2023/06/06 04:31:41;;;;;;;20.60;17.20;;;;;;;;;;5095989;28;20561;-72
2023/06/06 04:34:09;;;;;;;29.67;20.23;;;;;;;;;;5095961;28;20486;-72
2023/06/06 04:36:38;;;;;;;24.43;17.50;;;;;;;;;;5096219;28;20454;-72
2023/06/06 04:39:06;;;;;;;25.03;18.90;;;;;;;;;;5095737;28;20478;-72
2023/06/06 04:41:34;;;;;;;27.50;19.70;;;;;;;;;;5096126;28;20589;-72
2023/06/06 04:44:02;;;;;;;24.90;17.50;;;;;;;;;;5096122;28;20507;-72
2023/06/06 04:46:29;;;;;;;24.80;18.43;;;;;;;;;;5096192;28;20950;-72
2023/06/06 04:49:01;;;;;;;25.23;18.37;;;;;;;;;;5095977;28;20539;-72
2023/06/06 04:51:30;;;;;;;29.63;18.83;;;;;;;;;;5096050;28;20513;-72
2023/06/06 04:53:58;;;;;;;23.73;18.73;;;;;;;;;;5095820;28;20576;-72
2023/06/06 04:56:25;;;;;;;24.57;19.10;;;;;;;;;;5095645;28;20459;-72
2023/06/06 04:58:53;;;;;;;30.20;17.77;;;;;;;;;;5095797;28;21026;-72
2023/06/06 05:01:20;;;;;;;25.43;19.47;;;;;;;;;;5095787;28;20507;-72
2023/06/06 05:03:48;;;;;;;29.13;19.47;;;;;;;;;;5095692;28;20454;-72
2023/06/06 05:06:16;;;;;;;23.80;18.30;;;;;;;;;;5095668;28;20458;-72
2023/06/06 05:08:45;;;;;;;23.63;17.53;;;;;;;;;;5095579;28;20939;-72
2023/06/06 05:11:12;;;;;;;22.50;17.60;;;;;;;;;;5095601;28;20482;-72
2023/06/06 05:13:39;;;;;;;20.70;16.80;;;;;;;;;;5095435;28;20486;-72
2023/06/06 05:16:07;;;;;;;24.80;19.40;;;;;;;;;;5095254;28;20461;-72
2023/06/06 05:18:35;;;;;;;25.50;19.40;;;;;;;;;;5095247;28;20450;-72
2023/06/06 05:21:03;;;;;;;22.93;19.10;;;;;;;;;;5095428;28;20808;-72
2023/06/06 05:23:32;;;;;;;26.50;20.03;;;;;;;;;;5095341;28;20958;-72
2023/06/06 05:25:59;;;;;;;31.00;21.90;;;;;;;;;;5095680;28;20462;-72
2023/06/06 05:28:28;;;;;;;28.17;20.67;;;;;;;;;;5095128;28;20450;-72
2023/06/06 05:30:56;;;;;;;31.33;20.40;;;;;;;;;;5094875;28;20477;-72
2023/06/06 05:33:25;;;;;;;24.77;20.07;;;;;;;;;;5095038;28;20935;-72
2023/06/06 05:35:52;;;;;;;23.00;18.83;;;;;;;;;;5095098;28;21013;-72
2023/06/06 05:38:21;;;;;;;23.97;18.60;;;;;;;;;;5095028;28;20461;-72
2023/06/06 05:40:49;;;;;;;19.40;16.07;;;;;;;;;;5095026;28;20475;-72
2023/06/06 05:43:17;;;;;;;19.90;16.17;;;;;;;;;;5094690;28;20545;-72
2023/06/06 05:45:44;;;;;;;18.63;16.73;;;;;;;;;;5094900;28;20489;-72
2023/06/06 05:48:11;;;;;;;21.23;17.10;;;;;;;;;;5094813;28;20457;-72
2023/06/06 05:50:38;;;;;;;19.90;15.60;;;;;;;;;;5094940;28;20470;-73
2023/06/06 05:53:05;;;;;;;17.27;15.47;;;;;;;;;;5094460;28;20486;-73
2023/06/06 05:55:32;;;;;;;19.87;15.47;;;;;;;;;;5094732;28;20450;-73
2023/06/06 05:58:01;;;;;;;19.33;17.27;;;;;;;;;;5094498;28;20450;-73
2023/06/06 06:00:30;;;;;;;14.17;12.87;;;;;;;;;;5094522;28;20968;-73
2023/06/06 06:02:58;;;;;;;15.40;12.57;;;;;;;;;;5094611;28;20457;-73
2023/06/06 06:05:27;;;;;;;14.03;12.60;;;;;;;;;;5094606;28;20931;-73
2023/06/06 06:07:55;;;;;;;13.47;12.10;;;;;;;;;;5094524;28;20482;-73
2023/06/06 06:10:22;;;;;;;14.20;12.80;;;;;;;;;;5094119;28;20463;-73
2023/06/06 06:12:49;;;;;;;15.20;13.70;;;;;;;;;;5094362;28;20497;-73
2023/06/06 06:15:17;;;;;;;16.00;14.50;;;;;;;;;;5094383;28;20447;-73
2023/06/06 06:17:45;;;;;;;16.27;14.70;;;;;;;;;;5094024;28;20450;-73
2023/06/06 06:20:13;;;;;;;18.10;16.40;;;;;;;;;;5094155;28;20475;-73
2023/06/06 06:22:40;;;;;;;15.53;13.83;;;;;;;;;;5094142;28;20457;-73
2023/06/06 06:25:12;;;;;;;16.50;14.80;;;;;;;;;;5093919;28;20508;-73
2023/06/06 06:27:39;;;;;;;17.23;14.80;;;;;;;;;;5094180;28;20492;-73
2023/06/06 06:30:07;;;;;;;16.20;14.40;;;;;;;;;;5093654;28;20475;-73
2023/06/06 06:32:36;;;;;;;15.03;13.40;;;;;;;;;;5094200;28;20542;-73
2023/06/06 06:35:03;;;;;;;11.93;10.70;;;;;;;;;;5093867;28;20541;-73
2023/06/06 06:37:31;;;;;;;13.23;11.80;;;;;;;;;;5093869;28;20490;-73
2023/06/06 06:39:58;;;;;;;13.40;11.93;;;;;;;;;;5093296;28;20478;-73
2023/06/06 06:42:25;;;;;;;12.97;11.73;;;;;;;;;;5093436;28;20459;-73
2023/06/06 06:44:52;;;;;;;13.10;11.80;;;;;;;;;;5094492;28;20451;-73
2023/06/06 06:47:19;;;;;;;12.67;11.47;;;;;;;;;;5093890;28;20458;-73
2023/06/06 06:49:50;;;;;;;12.47;11.27;;;;;;;;;;5093712;28;20467;-74
2023/06/06 06:52:17;;;;;;;11.40;10.33;;;;;;;;;;5093332;28;20447;-73
2023/06/06 06:54:46;;;;;;;11.00;9.90;;;;;;;;;;5093236;28;20553;-73
2023/06/06 06:57:13;;;;;;;10.33;9.43;;;;;;;;;;5093483;28;20557;-73
2023/06/06 06:59:42;;;;;;;11.73;10.53;;;;;;;;;;5093530;28;20832;-73
2023/06/06 07:02:09;;;;;;;9.97;9.10;;;;;;;;;;5093481;28;20861;-74
2023/06/06 07:04:39;;;;;;;9.50;8.60;;;;;;;;;;5093479;28;20462;-74
2023/06/06 07:07:08;;;;;;;10.23;9.33;;;;;;;;;;5093033;28;20462;-74
2023/06/06 07:09:35;;;;;;;10.60;9.70;;;;;;;;;;5093292;28;20474;-73
2023/06/06 07:12:02;;;;;;;10.30;9.30;;;;;;;;;;5093017;28;20458;-74
2023/06/06 07:14:30;;;;;;;11.00;10.00;;;;;;;;;;5093182;28;20486;-74
2023/06/06 07:16:57;;;;;;;10.50;9.70;;;;;;;;;;5093470;28;20450;-74
2023/06/06 07:19:26;;;;;;;10.47;9.57;;;;;;;;;;5093133;28;20477;-74
2023/06/06 07:21:54;;;;;;;9.87;9.10;;;;;;;;;;5093113;28;20560;-74
2023/06/06 07:24:23;;;;;;;12.13;10.83;;;;;;;;;;5093087;28;20442;-74
2023/06/06 07:26:52;;;;;;;11.20;10.30;;;;;;;;;;5093094;28;20912;-74
2023/06/06 07:29:21;;;;;;;10.20;9.20;;;;;;;;;;5092918;28;20470;-74
2023/06/06 07:31:48;;;;;;;12.10;11.00;;;;;;;;;;5093068;28;20450;-74
2023/06/06 07:34:15;;;;;;;10.33;9.43;;;;;;;;;;5092668;28;20514;-74
2023/06/06 07:36:43;;;;;;;11.30;10.30;;;;;;;;;;5093024;28;20458;-73
2023/06/06 07:39:10;;;;;;;11.20;10.20;;;;;;;;;;5092955;28;20481;-73
2023/06/06 07:41:40;;;;;;;10.83;9.77;;;;;;;;;;5092955;28;20451;-73
2023/06/06 07:44:07;;;;;;;10.30;9.40;;;;;;;;;;5093176;28;20791;-73
2023/06/06 07:46:34;;;;;;;11.93;10.93;;;;;;;;;;5092865;28;20462;-73
2023/06/06 07:49:01;;;;;;;10.70;9.87;;;;;;;;;;5092823;28;20994;-74
2023/06/06 07:51:30;;;;;;;17.47;13.03;;;;;;;;;;5092873;28;20462;-74
2023/06/06 07:53:57;;;;;;;12.37;11.17;;;;;;;;;;5096788;28;20494;-73
2023/06/06 07:56:24;;;;;;;12.93;10.20;;;;;;;;;;5096552;28;20463;-73
2023/06/06 07:58:54;;;;;;;12.30;10.87;;;;;;;;;;5097084;28;20443;-73
2023/06/06 08:01:23;;;;;;;12.10;11.00;;;;;;;;;;5097039;28;20460;-73
2023/06/06 08:03:50;;;;;;;10.77;9.77;;;;;;;;;;5096613;28;20446;-73
2023/06/06 08:06:18;;;;;;;12.67;10.00;;;;;;;;;;5096965;28;20453;-73
2023/06/06 08:08:46;;;;;;;10.80;9.80;;;;;;;;;;5096364;28;20455;-73
2023/06/06 08:11:13;;;;;;;12.97;11.67;;;;;;;;;;5096689;28;20459;-73
2023/06/06 08:13:41;;;;;;;11.20;10.20;;;;;;;;;;5096569;28;20486;-73
2023/06/06 08:16:09;;;;;;;12.00;9.43;;;;;;;;;;5096261;28;20595;-73
2023/06/06 08:18:37;;;;;;;11.50;10.23;;;;;;;;;;5096519;28;20490;-73
2023/06/06 08:21:04;;;;;;;12.97;11.63;;;;;;;;;;5096275;28;20462;-73
2023/06/06 08:23:31;;;;;;;13.30;12.10;;;;;;;;;;5096510;28;20461;-73
2023/06/06 08:25:58;;;;;;;13.47;12.17;;;;;;;;;;5096368;28;20450;-73
2023/06/06 08:28:26;;;;;;;13.50;12.10;;;;;;;;;;5096472;28;20457;-73
2023/06/06 08:30:53;;;;;;;12.60;11.10;;;;;;;;;;5097188;28;20555;-73
2023/06/06 08:33:22;;;;;;;12.20;11.00;;;;;;;;;;5096393;28;20605;-73
2023/06/06 08:35:49;;;;;;;21.93;12.20;;;;;;;;;;5095989;28;20931;-73
2023/06/06 08:38:16;;;;;;;13.33;11.80;;;;;;;;;;5096338;28;20453;-73
2023/06/06 08:40:44;;;;;;;13.03;11.60;;;;;;;;;;5096125;28;20478;-73
2023/06/06 08:43:12;;;;;;;18.23;11.93;;;;;;;;;;5096092;28;20451;-73
2023/06/06 08:45:42;;;;;;;13.83;12.43;;;;;;;;;;5096084;28;20935;-73
2023/06/06 08:48:10;;;;;;;14.53;12.50;;;;;;;;;;5095767;28;20442;-73
2023/06/06 08:50:39;;;;;;;13.47;12.07;;;;;;;;;;5096124;28;20473;-73
2023/06/06 08:53:07;;;;;;;11.87;10.67;;;;;;;;;;5096083;28;20746;-73
2023/06/06 08:55:35;;;;;;;12.93;11.63;;;;;;;;;;5095800;28;20905;-73
2023/06/06 08:58:03;;;;;;;11.43;10.23;;;;;;;;;;5096097;28;20857;-73
2023/06/06 09:00:30;;;;;;;12.43;11.00;;;;;;;;;;5095841;28;20505;-73
2023/06/06 09:02:59;;;;;;;13.63;10.60;;;;;;;;;;5095291;28;20492;-73
2023/06/06 09:05:26;;;;;;;12.80;11.53;;;;;;;;;;5095796;28;20997;-74
2023/06/06 09:07:55;;;;;;;11.57;10.47;;;;;;;;;;5095424;28;20482;-74
2023/06/06 09:10:23;;;;;;;13.00;11.80;;;;;;;;;;5095554;28;20509;-73
2023/06/06 09:12:50;;;;;;;12.90;11.67;;;;;;;;;;5095677;28;20944;-74
2023/06/06 09:15:17;;;;;;;12.90;11.53;;;;;;;;;;5095599;28;20486;-74
2023/06/06 09:17:46;;;;;;;11.63;10.53;;;;;;;;;;5095277;28;20446;-74
2023/06/06 09:20:14;;;;;;;12.00;10.80;;;;;;;;;;5095175;28;20473;-74
2023/06/06 09:22:42;;;;;;;11.30;10.10;;;;;;;;;;5095389;28;20537;-73
2023/06/06 09:25:17;;;;;;;10.53;9.63;;;;;;;;;;5095149;28;20442;-74
2023/06/06 09:27:44;;;;;;;11.90;10.73;;;;;;;;;;5095475;28;20451;-73
2023/06/06 09:30:20;;;;;;;10.70;9.70;;;;;;;;;;5095202;28;20478;-73
2023/06/06 09:32:47;;;;;;;11.97;10.10;;;;;;;;;;5095344;28;20887;-74
2023/06/06 09:35:15;;;;;;;10.50;9.60;;;;;;;;;;5095080;28;20478;-73
2023/06/06 09:37:42;;;;;;;9.40;8.40;;;;;;;;;;5095107;28;20455;-74
2023/06/06 09:40:13;;;;;;;10.10;9.20;;;;;;;;;;5095117;28;20811;-74
2023/06/06 09:42:43;;;;;;;9.43;8.60;;;;;;;;;;5094702;28;20454;-74
2023/06/06 09:45:14;;;;;;;9.77;8.87;;;;;;;;;;5095323;28;20423;-74
2023/06/06 09:47:41;;;;;;;11.17;10.17;;;;;;;;;;5094656;28;20458;-74
2023/06/06 09:50:09;;;;;;;9.70;8.80;;;;;;;;;;5094699;28;20554;-74
2023/06/06 09:52:36;;;;;;;10.77;9.77;;;;;;;;;;5094480;28;20451;-74
2023/06/06 09:55:06;;;;;;;9.50;8.60;;;;;;;;;;5094795;28;20505;-73
2023/06/06 09:57:35;;;;;;;9.33;8.10;;;;;;;;;;5094630;28;20498;-73
2023/06/06 10:00:08;;;;;;;10.53;9.47;;;;;;;;;;5094808;28;20471;-73
2023/06/06 10:02:36;;;;;;;10.03;9.00;;;;;;;;;;5095385;28;20764;-73
2023/06/06 10:05:04;;;;;;;10.40;9.40;;;;;;;;;;5094690;28;20469;-74
2023/06/06 10:07:32;;;;;;;8.90;8.10;;;;;;;;;;5094555;28;20821;-74
2023/06/06 10:09:59;;;;;;;9.87;8.80;;;;;;;;;;5094208;28;20871;-73
2023/06/06 10:12:27;;;;;;;10.10;9.10;;;;;;;;;;5094484;28;20795;-73
2023/06/06 10:14:54;;;;;;;9.60;8.70;;;;;;;;;;5093320;28;20846;-73
2023/06/06 10:17:24;;;;;;;9.17;8.20;;;;;;;;;;5094984;28;21034;-73
2023/06/06 10:19:53;;;;;;;10.57;9.50;;;;;;;;;;5094273;28;20474;-73
2023/06/06 10:22:20;;;;;;;9.27;8.47;;;;;;;;;;5094282;28;20812;-73
2023/06/06 10:24:47;;;;;;;9.70;8.63;;;;;;;;;;5094210;28;20454;-74
2023/06/06 10:27:18;;;;;;;8.70;7.90;;;;;;;;;;5094128;28;20930;-74
2023/06/06 10:29:48;;;;;;;7.77;7.07;;;;;;;;;;5094244;28;20494;-74
2023/06/06 10:32:18;;;;;;;10.03;9.10;;;;;;;;;;5093800;28;20517;-74
2023/06/06 10:34:48;;;;;;;9.20;8.10;;;;;;;;;;5094073;28;20521;-74
2023/06/06 10:37:16;;;;;;;9.97;9.07;;;;;;;;;;5094477;28;20473;-74
2023/06/06 10:39:46;;;;;;;7.83;7.13;;;;;;;;;;5093563;28;20467;-73
2023/06/06 10:42:13;;;;;;;7.70;6.90;;;;;;;;;;5094032;28;20451;-74
2023/06/06 10:44:43;;;;;;;6.43;5.87;;;;;;;;;;5093864;28;20931;-74
2023/06/06 10:47:28;;;;;;;7.60;6.90;;;;;;;;;;5093556;28;20447;-74
2023/06/06 10:50:14;;;;;;;6.93;6.27;;;;;;;;;;5093817;28;20968;-74
2023/06/06 10:52:44;;;;;;;6.93;6.23;;;;;;;;;;5093621;28;20451;-74
2023/06/06 10:55:15;;;;;;;7.10;6.50;;;;;;;;;;5093351;28;20463;-74
2023/06/06 10:57:50;;;;;;;10.73;7.73;;;;;;;;;;5093367;28;20524;-74
2023/06/06 11:00:17;;;;;;;8.33;7.57;;;;;;;;;;5093622;28;20996;-74
2023/06/06 11:02:47;;;;;;;7.10;6.33;;;;;;;;;;5093519;28;20538;-73
2023/06/06 11:05:14;;;;;;;6.53;5.93;;;;;;;;;;5093664;28;20454;-74
2023/06/06 11:07:49;;;;;;;6.73;6.10;;;;;;;;;;5093261;28;20450;-74
2023/06/06 11:10:20;;;;;;;7.03;6.23;;;;;;;;;;5093342;28;20474;-74
2023/06/06 11:12:49;;;;;;;7.37;6.77;;;;;;;;;;5093535;28;20445;-74
2023/06/06 11:15:27;;;;;;;5.90;5.40;;;;;;;;;;5093246;28;20514;-74
2023/06/06 11:18:00;;;;;;;5.80;5.10;;;;;;;;;;5093773;28;20814;-74
2023/06/06 11:20:27;;;;;;;4.77;4.37;;;;;;;;;;5093083;28;20970;-74
2023/06/06 11:23:01;;;;;;;5.33;4.93;;;;;;;;;;5093286;28;20450;-74
2023/06/06 11:25:29;;;;;;;5.20;4.30;;;;;;;;;;5093077;28;20431;-74
2023/06/06 11:27:56;;;;;;;5.93;5.40;;;;;;;;;;5092836;28;20469;-74
2023/06/06 11:30:24;;;;;;;7.03;6.23;;;;;;;;;;5093123;28;20990;-75
2023/06/06 11:32:51;;;;;;;6.27;5.67;;;;;;;;;;5093117;28;20447;-74
2023/06/06 11:35:19;;;;;;;6.30;5.27;;;;;;;;;;5093076;28;20482;-74
2023/06/06 11:37:46;;;;;;;5.33;4.93;;;;;;;;;;5092929;28;20848;-74
2023/06/06 11:40:15;;;;;;;5.67;5.00;;;;;;;;;;5092893;28;20470;-74
2023/06/06 11:42:45;;;;;;;6.17;5.67;;;;;;;;;;5093024;28;20454;-74
2023/06/06 11:45:14;;;;;;;6.13;5.63;;;;;;;;;;5092947;28;20454;-74
2023/06/06 11:47:41;;;;;;;5.40;4.90;;;;;;;;;;5092868;28;20482;-74
2023/06/06 11:50:08;;;;;;;4.83;4.43;;;;;;;;;;5092829;28;20848;-74
2023/06/06 11:52:44;;;;;;;5.80;5.40;;;;;;;;;;5092584;28;20474;-74
2023/06/06 11:55:11;;;;;;;5.90;5.30;;;;;;;;;;5093060;28;20494;-74
2023/06/06 11:57:40;;;;;;;6.60;6.10;;;;;;;;;;5092456;28;20584;-74
2023/06/06 12:00:17;;;;;;;6.13;5.33;;;;;;;;;;5092353;28;20585;-74
2023/06/06 12:02:48;;;;;;;5.90;5.40;;;;;;;;;;5093024;28;20924;-74
2023/06/06 12:05:20;;;;;;;8.13;6.17;;;;;;;;;;5092791;28;20524;-74
2023/06/06 12:07:48;;;;;;;6.10;5.60;;;;;;;;;;5092801;28;20461;-74
2023/06/06 12:10:23;;;;;;;6.40;5.90;;;;;;;;;;5092675;28;20482;-74
2023/06/06 12:12:51;;;;;;;6.23;5.60;;;;;;;;;;5092807;28;20458;-74
2023/06/06 12:15:18;;;;;;;11.67;5.37;;;;;;;;;;5092888;28;20481;-74
2023/06/06 12:17:45;;;;;;;5.13;4.73;;;;;;;;;;5092689;28;20458;-74
2023/06/06 12:20:13;;;;;;;5.57;4.90;;;;;;;;;;5075150;28;20471;-74
2023/06/06 12:22:40;;;;;;;5.10;4.60;;;;;;;;;;5072074;28;20459;-76
2023/06/06 12:25:07;;;;;;;6.03;5.43;;;;;;;;;;5072457;28;20901;-74
2023/06/06 12:27:36;;;;;;;11.13;6.13;;;;;;;;;;5072220;28;20831;-73
2023/06/06 12:30:07;;;;;;;5.73;5.23;;;;;;;;;;5072307;28;20500;-74
2023/06/06 12:32:36;;;;;;;13.60;5.07;;;;;;;;;;5072051;28;20451;-74
2023/06/06 12:35:05;;;;;;;5.33;4.93;;;;;;;;;;5072272;28;20491;-74
2023/06/06 12:37:39;;;;;;;5.90;5.30;;;;;;;;;;5073362;28;20480;-76
2023/06/06 12:40:16;;;;;;;5.83;5.33;;;;;;;;;;5091518;28;21045;-76
2023/06/06 12:42:43;;;;;;;5.60;5.07;;;;;;;;;;5096600;28;20450;-75
2023/06/06 12:45:12;;;;;;;6.43;5.53;;;;;;;;;;5096158;28;20447;-75
2023/06/06 12:47:40;;;;;;;11.00;5.87;;;;;;;;;;5096195;28;20864;-76
2023/06/06 12:50:07;;;;;;;6.93;5.20;;;;;;;;;;5095886;28;20510;-74
2023/06/06 12:52:35;;;;;;;4.93;4.53;;;;;;;;;;5096258;28;20453;-76
2023/06/06 12:55:02;;;;;;;6.00;5.40;;;;;;;;;;5095498;28;20492;-75
2023/06/06 12:57:29;;;;;;;5.90;5.30;;;;;;;;;;5095489;28;20463;-76
2023/06/06 12:59:57;;;;;;;8.73;5.93;;;;;;;;;;5095656;28;20474;-76
2023/06/06 13:02:25;;;;;;;5.73;5.23;;;;;;;;;;5095654;28;20443;-76
2023/06/06 13:04:53;;;;;;;8.37;5.50;;;;;;;;;;5095784;28;20963;-76
2023/06/06 13:07:20;;;;;;;5.20;4.70;;;;;;;;;;5095415;28;20450;-76
2023/06/06 13:09:47;;;;;;;5.73;5.30;;;;;;;;;;5095314;28;20473;-75
2023/06/06 13:12:14;;;;;;;6.47;5.87;;;;;;;;;;5095653;28;20473;-75
2023/06/06 13:14:41;;;;;;;6.50;6.00;;;;;;;;;;5095650;28;20450;-75
2023/06/06 13:17:09;;;;;;;5.43;4.93;;;;;;;;;;5095473;28;20450;-75
2023/06/06 13:19:37;;;;;;;7.23;6.23;;;;;;;;;;5081498;28;20871;-75
2023/06/06 13:22:04;;;;;;;7.23;6.60;;;;;;;;;;5095166;28;20451;-75
2023/06/06 13:24:31;;;;;;;6.90;6.27;;;;;;;;;;5095342;28;20450;-76
2023/06/06 13:26:58;;;;;;;6.13;5.53;;;;;;;;;;5095435;28;20474;-76
2023/06/06 13:29:26;;;;;;;8.30;5.97;;;;;;;;;;5095106;28;20478;-75
2023/06/06 13:31:53;;;;;;;5.97;5.37;;;;;;;;;;5095252;28;20500;-76
2023/06/06 13:34:20;;;;;;;6.13;4.90;;;;;;;;;;5089426;28;20455;-75
2023/06/06 13:36:49;;;;;;;7.03;6.30;;;;;;;;;;5074906;28;20530;-75
2023/06/06 13:39:16;;;;;;;5.60;5.00;;;;;;;;;;5074423;28;20468;-75
2023/06/06 13:41:43;;;;;;;7.10;5.60;;;;;;;;;;5087772;28;20860;-76
2023/06/06 13:44:17;;;;;;;5.47;4.97;;;;;;;;;;5094452;28;20462;-75
2023/06/06 13:46:44;;;;;;;5.10;4.70;;;;;;;;;;5095068;28;20450;-76
2023/06/06 13:49:12;;;;;;;6.23;5.20;;;;;;;;;;5093477;28;20986;-75
2023/06/06 13:51:39;;;;;;;5.20;4.80;;;;;;;;;;5094678;28;20896;-75
2023/06/06 13:54:08;;;;;;;4.90;4.43;;;;;;;;;;5094829;28;20923;-75
2023/06/06 13:56:35;;;;;;;6.33;5.77;;;;;;;;;;5094368;28;20485;-75
2023/06/06 13:59:03;;;;;;;5.97;5.47;;;;;;;;;;5094729;28;20567;-75
2023/06/06 14:01:31;;;;;;;5.23;4.50;;;;;;;;;;5094547;28;20935;-75
2023/06/06 14:03:58;;;;;;;6.20;5.60;;;;;;;;;;5094326;28;20459;-75
2023/06/06 14:06:26;;;;;;;11.20;5.73;;;;;;;;;;5094485;28;20817;-75
2023/06/06 14:08:53;;;;;;;9.33;6.33;;;;;;;;;;5094388;28;20453;-75
2023/06/06 14:11:22;;;;;;;7.03;6.33;;;;;;;;;;5094488;28;20453;-75
2023/06/06 14:13:49;;;;;;;5.50;4.97;;;;;;;;;;5094417;28;20459;-75
2023/06/06 14:16:16;;;;;;;9.33;5.43;;;;;;;;;;5094386;28;20502;-75
2023/06/06 14:18:46;;;;;;;6.53;5.33;;;;;;;;;;5093934;28;20545;-75
2023/06/06 14:21:28;;;;;;;5.80;5.30;;;;;;;;;;5094342;28;20521;-75
2023/06/06 14:23:55;;;;;;;5.77;5.37;;;;;;;;;;5094420;28;20439;-75
2023/06/06 14:26:24;;;;;;;8.80;5.17;;;;;;;;;;5094435;28;20924;-75
2023/06/06 14:28:51;;;;;;;6.87;5.70;;;;;;;;;;5094020;28;20763;-75
2023/06/06 14:31:19;;;;;;;6.80;5.80;;;;;;;;;;5094163;28;20474;-75